sensor_id;sensor_type;location;lat;lon;timestamp;pressure;altitude;pressure_sealevel;temperature;humidity
6427;BME280;3246;42.664;23.308;2024-03-23T00:55:39;120715.88;;;-142.62;52.66
6427;BME280;3246;42.664;23.308;2024-03-23T00:58:06;120715.88;;;-142.62;53.01
6427;BME280;3246;42.664;23.308;2024-03-23T01:00:31;120715.88;;;-142.62;52.90
6427;BME280;3246;42.664;23.308;2024-03-23T01:02:58;120715.88;;;-142.62;53.01
6427;BME280;3246;42.664;23.308;2024-03-23T01:05:24;120715.88;;;-142.62;53.58
6427;BME280;3246;42.664;23.308;2024-03-23T01:07:51;120715.88;;;-142.62;53.82
6427;BME280;3246;42.664;23.308;2024-03-23T01:10:17;120715.88;;;-142.62;53.26
6427;BME280;3246;42.664;23.308;2024-03-23T01:12:45;120715.88;;;-142.62;52.64
6427;BME280;3246;42.664;23.308;2024-03-23T01:15:11;120715.88;;;-142.62;53.16
6427;BME280;3246;42.664;23.308;2024-03-23T01:17:38;120715.88;;;-142.62;52.50
6427;BME280;3246;42.664;23.308;2024-03-23T01:20:04;120715.88;;;-142.62;53.74
6427;BME280;3246;42.664;23.308;2024-03-23T01:22:32;120715.88;;;-142.62;53.80
6427;BME280;3246;42.664;23.308;2024-03-23T01:24:58;120715.88;;;-142.62;53.09
6427;BME280;3246;42.664;23.308;2024-03-23T01:27:25;120715.88;;;-142.62;53.30
6427;BME280;3246;42.664;23.308;2024-03-23T01:29:52;120715.88;;;-142.62;52.66
6427;BME280;3246;42.664;23.308;2024-03-23T01:32:19;120715.88;;;-142.62;51.87
6427;BME280;3246;42.664;23.308;2024-03-23T01:34:45;120715.88;;;-142.62;51.17
6427;BME280;3246;42.664;23.308;2024-03-23T01:37:12;120715.88;;;-142.62;50.59
6427;BME280;3246;42.664;23.308;2024-03-23T01:39:38;120715.88;;;-142.62;52.08
6427;BME280;3246;42.664;23.308;2024-03-23T01:42:05;120715.88;;;-142.62;53.82
6427;BME280;3246;42.664;23.308;2024-03-23T01:44:31;120715.88;;;-142.62;53.84
6427;BME280;3246;42.664;23.308;2024-03-23T01:46:59;120715.88;;;-142.62;54.86
6427;BME280;3246;42.664;23.308;2024-03-23T01:49:25;120715.88;;;-142.62;55.30
6427;BME280;3246;42.664;23.308;2024-03-23T01:51:52;120715.88;;;-142.62;55.80
6427;BME280;3246;42.664;23.308;2024-03-23T01:54:18;120715.88;;;-142.62;55.17
6427;BME280;3246;42.664;23.308;2024-03-23T01:56:45;120715.88;;;-142.62;55.70
6427;BME280;3246;42.664;23.308;2024-03-23T01:59:11;120715.88;;;-142.62;56.05
6427;BME280;3246;42.664;23.308;2024-03-23T02:01:39;120715.88;;;-142.62;56.08
6427;BME280;3246;42.664;23.308;2024-03-23T02:04:06;120715.88;;;-142.62;55.34
6427;BME280;3246;42.664;23.308;2024-03-23T02:06:34;120715.88;;;-142.62;55.46
6427;BME280;3246;42.664;23.308;2024-03-23T02:09:00;120715.88;;;-142.62;56.00
6427;BME280;3246;42.664;23.308;2024-03-23T02:11:27;120715.88;;;-142.62;55.68
6427;BME280;3246;42.664;23.308;2024-03-23T02:13:53;120715.88;;;-142.62;55.94
6427;BME280;3246;42.664;23.308;2024-03-23T02:16:20;120715.88;;;-142.62;56.27
6427;BME280;3246;42.664;23.308;2024-03-23T02:18:45;120715.88;;;-142.62;56.13
6427;BME280;3246;42.664;23.308;2024-03-23T02:21:15;120715.88;;;-142.62;56.11
6427;BME280;3246;42.664;23.308;2024-03-23T02:23:42;120715.88;;;-142.62;55.77
6427;BME280;3246;42.664;23.308;2024-03-23T02:26:09;120715.88;;;-142.62;56.35
6427;BME280;3246;42.664;23.308;2024-03-23T02:28:34;120715.88;;;-142.62;56.29
6427;BME280;3246;42.664;23.308;2024-03-23T02:31:01;120715.88;;;-142.62;56.75
6427;BME280;3246;42.664;23.308;2024-03-23T02:33:27;120715.88;;;-142.62;56.27
6427;BME280;3246;42.664;23.308;2024-03-23T02:35:56;120715.88;;;-142.62;56.16
6427;BME280;3246;42.664;23.308;2024-03-23T02:38:22;120715.88;;;-142.62;56.06
6427;BME280;3246;42.664;23.308;2024-03-23T02:40:51;120715.88;;;-142.62;56.57
6427;BME280;3246;42.664;23.308;2024-03-23T02:43:16;120715.88;;;-142.62;56.13
6427;BME280;3246;42.664;23.308;2024-03-23T02:45:43;120715.88;;;-142.62;56.20
6427;BME280;3246;42.664;23.308;2024-03-23T02:48:09;120715.88;;;-142.62;56.42
6427;BME280;3246;42.664;23.308;2024-03-23T02:50:36;120715.88;;;-142.62;56.27
6427;BME280;3246;42.664;23.308;2024-03-23T02:53:02;120715.88;;;-142.62;56.70
6427;BME280;3246;42.664;23.308;2024-03-23T02:55:29;120715.88;;;-142.62;57.32
6427;BME280;3246;42.664;23.308;2024-03-23T02:57:56;120715.88;;;-142.62;56.65
6427;BME280;3246;42.664;23.308;2024-03-23T03:00:27;120715.88;;;-142.62;57.09
6427;BME280;3246;42.664;23.308;2024-03-23T03:02:53;120715.88;;;-142.62;56.92
6427;BME280;3246;42.664;23.308;2024-03-23T03:05:20;120715.88;;;-142.62;56.16
6427;BME280;3246;42.664;23.308;2024-03-23T03:07:45;120715.88;;;-142.62;56.17
6427;BME280;3246;42.664;23.308;2024-03-23T03:10:12;120715.88;;;-142.62;56.20
6427;BME280;3246;42.664;23.308;2024-03-23T03:12:38;120715.88;;;-142.62;56.04
6427;BME280;3246;42.664;23.308;2024-03-23T03:15:08;120715.88;;;-142.62;57.12
6427;BME280;3246;42.664;23.308;2024-03-23T03:17:34;120715.88;;;-142.62;57.47
6427;BME280;3246;42.664;23.308;2024-03-23T03:20:01;120715.88;;;-142.62;57.79
6427;BME280;3246;42.664;23.308;2024-03-23T03:22:28;120715.88;;;-142.62;58.33
6427;BME280;3246;42.664;23.308;2024-03-23T03:24:54;120715.88;;;-142.62;58.71
6427;BME280;3246;42.664;23.308;2024-03-23T03:27:20;120715.88;;;-142.62;58.83
6427;BME280;3246;42.664;23.308;2024-03-23T03:29:48;120715.88;;;-142.62;58.69
6427;BME280;3246;42.664;23.308;2024-03-23T03:32:15;120715.88;;;-142.62;59.19
6427;BME280;3246;42.664;23.308;2024-03-23T03:34:42;120715.88;;;-142.62;59.77
6427;BME280;3246;42.664;23.308;2024-03-23T03:37:07;120715.88;;;-142.62;60.12
6427;BME280;3246;42.664;23.308;2024-03-23T03:39:34;120715.88;;;-142.62;59.83
6427;BME280;3246;42.664;23.308;2024-03-23T03:42:00;120715.88;;;-142.62;60.05
6427;BME280;3246;42.664;23.308;2024-03-23T03:44:29;120715.88;;;-142.62;60.48
6427;BME280;3246;42.664;23.308;2024-03-23T03:46:55;120715.88;;;-142.62;60.78
6427;BME280;3246;42.664;23.308;2024-03-23T03:49:23;120715.88;;;-142.62;60.37
6427;BME280;3246;42.664;23.308;2024-03-23T03:51:49;120715.88;;;-142.62;60.49
6427;BME280;3246;42.664;23.308;2024-03-23T03:54:16;120715.88;;;-142.62;61.08
6427;BME280;3246;42.664;23.308;2024-03-23T03:56:41;120715.88;;;-142.62;60.49
6427;BME280;3246;42.664;23.308;2024-03-23T03:59:08;120715.88;;;-142.62;61.18
6427;BME280;3246;42.664;23.308;2024-03-23T04:01:34;120715.88;;;-142.62;60.12
6427;BME280;3246;42.664;23.308;2024-03-23T04:04:01;120715.88;;;-142.62;60.06
6427;BME280;3246;42.664;23.308;2024-03-23T04:06:28;120715.88;;;-142.62;59.90
6427;BME280;3246;42.664;23.308;2024-03-23T04:08:55;120715.88;;;-142.62;60.02
6427;BME280;3246;42.664;23.308;2024-03-23T04:11:21;120715.88;;;-142.62;60.21
6427;BME280;3246;42.664;23.308;2024-03-23T04:13:48;120715.88;;;-142.62;60.65
6427;BME280;3246;42.664;23.308;2024-03-23T04:16:24;120715.88;;;-142.62;60.57
6427;BME280;3246;42.664;23.308;2024-03-23T04:18:51;120715.88;;;-142.62;60.80
6427;BME280;3246;42.664;23.308;2024-03-23T04:21:17;120715.88;;;-142.62;61.27
6427;BME280;3246;42.664;23.308;2024-03-23T04:23:45;120715.88;;;-142.62;62.04
6427;BME280;3246;42.664;23.308;2024-03-23T04:26:11;120715.88;;;-142.62;61.81
6427;BME280;3246;42.664;23.308;2024-03-23T04:28:38;120715.88;;;-142.62;61.84
6427;BME280;3246;42.664;23.308;2024-03-23T04:31:04;120715.88;;;-142.62;61.96
6427;BME280;3246;42.664;23.308;2024-03-23T04:33:31;120715.88;;;-142.62;62.08
6427;BME280;3246;42.664;23.308;2024-03-23T04:35:56;120715.88;;;-142.62;61.64
6427;BME280;3246;42.664;23.308;2024-03-23T04:38:23;120715.88;;;-142.62;61.31
6427;BME280;3246;42.664;23.308;2024-03-23T04:40:55;120715.88;;;-142.62;60.80
6427;BME280;3246;42.664;23.308;2024-03-23T04:43:22;120715.88;;;-142.62;60.33
6427;BME280;3246;42.664;23.308;2024-03-23T04:45:49;120715.88;;;-142.62;59.88
6427;BME280;3246;42.664;23.308;2024-03-23T04:48:16;120715.88;;;-142.62;59.70
6427;BME280;3246;42.664;23.308;2024-03-23T04:50:42;120715.88;;;-142.62;58.84
6427;BME280;3246;42.664;23.308;2024-03-23T04:53:09;120715.88;;;-142.62;58.73
6427;BME280;3246;42.664;23.308;2024-03-23T04:55:35;120715.88;;;-142.62;58.47
6427;BME280;3246;42.664;23.308;2024-03-23T04:58:04;120715.88;;;-142.62;58.28
6427;BME280;3246;42.664;23.308;2024-03-23T05:00:30;120715.88;;;-142.62;58.09
6427;BME280;3246;42.664;23.308;2024-03-23T05:02:56;120715.88;;;-142.62;58.78
6427;BME280;3246;42.664;23.308;2024-03-23T05:05:22;120715.88;;;-142.62;58.63
6427;BME280;3246;42.664;23.308;2024-03-23T05:07:49;120715.88;;;-142.62;58.51
6427;BME280;3246;42.664;23.308;2024-03-23T05:10:15;120715.88;;;-142.62;58.87
6427;BME280;3246;42.664;23.308;2024-03-23T05:12:42;120715.88;;;-142.62;57.82
6427;BME280;3246;42.664;23.308;2024-03-23T05:15:11;120715.88;;;-142.62;57.45
6427;BME280;3246;42.664;23.308;2024-03-23T05:17:38;120715.88;;;-142.62;56.73
6427;BME280;3246;42.664;23.308;2024-03-23T05:20:05;120715.88;;;-142.62;56.74
6427;BME280;3246;42.664;23.308;2024-03-23T05:22:35;120715.88;;;-142.62;57.10
6427;BME280;3246;42.664;23.308;2024-03-23T05:25:01;120715.88;;;-142.62;55.97
6427;BME280;3246;42.664;23.308;2024-03-23T05:27:31;120715.88;;;-142.62;56.25
6427;BME280;3246;42.664;23.308;2024-03-23T05:29:56;120715.88;;;-142.62;56.78
6427;BME280;3246;42.664;23.308;2024-03-23T05:32:25;120715.88;;;-142.62;56.53
6427;BME280;3246;42.664;23.308;2024-03-23T05:34:51;120715.88;;;-142.62;55.63
6427;BME280;3246;42.664;23.308;2024-03-23T05:37:21;120715.88;;;-142.62;56.04
6427;BME280;3246;42.664;23.308;2024-03-23T05:39:47;120715.88;;;-142.62;55.90
6427;BME280;3246;42.664;23.308;2024-03-23T05:42:15;120715.88;;;-142.62;55.39
6427;BME280;3246;42.664;23.308;2024-03-23T05:44:43;120715.88;;;-142.62;55.37
6427;BME280;3246;42.664;23.308;2024-03-23T05:47:09;120715.88;;;-142.62;55.69
6427;BME280;3246;42.664;23.308;2024-03-23T05:49:37;120715.88;;;-142.62;56.13
6427;BME280;3246;42.664;23.308;2024-03-23T05:52:04;120715.88;;;-142.62;55.32
6427;BME280;3246;42.664;23.308;2024-03-23T05:54:30;120715.88;;;-142.62;55.63
6427;BME280;3246;42.664;23.308;2024-03-23T05:56:57;120715.88;;;-142.62;55.69
6427;BME280;3246;42.664;23.308;2024-03-23T05:59:23;120715.88;;;-142.62;55.49
6427;BME280;3246;42.664;23.308;2024-03-23T06:01:49;120715.88;;;-142.62;55.21
6427;BME280;3246;42.664;23.308;2024-03-23T06:04:15;120715.88;;;-142.62;54.75
6427;BME280;3246;42.664;23.308;2024-03-23T06:06:43;120715.88;;;-142.62;55.15
6427;BME280;3246;42.664;23.308;2024-03-23T06:09:09;120715.88;;;-142.62;55.10
6427;BME280;3246;42.664;23.308;2024-03-23T06:11:36;120715.88;;;-142.62;54.88
6427;BME280;3246;42.664;23.308;2024-03-23T06:14:02;120715.88;;;-142.62;54.27
6427;BME280;3246;42.664;23.308;2024-03-23T06:16:29;120715.88;;;-142.62;54.63
6427;BME280;3246;42.664;23.308;2024-03-23T06:18:56;120715.88;;;-142.62;54.06
6427;BME280;3246;42.664;23.308;2024-03-23T06:21:24;120715.88;;;-142.62;54.30
6427;BME280;3246;42.664;23.308;2024-03-23T06:23:52;120715.88;;;-142.62;53.58
6427;BME280;3246;42.664;23.308;2024-03-23T06:26:19;120715.88;;;-142.62;53.17
6427;BME280;3246;42.664;23.308;2024-03-23T06:28:45;120715.88;;;-142.62;53.56
6427;BME280;3246;42.664;23.308;2024-03-23T06:31:12;120715.88;;;-142.62;53.15
6427;BME280;3246;42.664;23.308;2024-03-23T06:33:39;120715.88;;;-142.62;53.17
6427;BME280;3246;42.664;23.308;2024-03-23T06:36:09;120715.88;;;-142.62;52.65
6427;BME280;3246;42.664;23.308;2024-03-23T06:38:35;120715.88;;;-142.62;53.09
6427;BME280;3246;42.664;23.308;2024-03-23T06:41:05;120715.88;;;-142.62;53.12
6427;BME280;3246;42.664;23.308;2024-03-23T06:43:31;120715.88;;;-142.62;52.03
6427;BME280;3246;42.664;23.308;2024-03-23T06:45:58;120715.88;;;-142.62;52.16
6427;BME280;3246;42.664;23.308;2024-03-23T06:48:24;120715.88;;;-142.62;52.67
6427;BME280;3246;42.664;23.308;2024-03-23T06:50:55;120715.88;;;-142.62;52.69
6427;BME280;3246;42.664;23.308;2024-03-23T06:53:21;120715.88;;;-142.62;52.69
6427;BME280;3246;42.664;23.308;2024-03-23T06:55:50;120715.88;;;-142.62;51.29
6427;BME280;3246;42.664;23.308;2024-03-23T06:58:18;120715.88;;;-142.62;51.07
6427;BME280;3246;42.664;23.308;2024-03-23T07:00:45;120715.88;;;-142.62;51.12
6427;BME280;3246;42.664;23.308;2024-03-23T07:03:11;120715.88;;;-142.62;50.53
6427;BME280;3246;42.664;23.308;2024-03-23T07:05:37;120715.88;;;-142.62;51.72
6427;BME280;3246;42.664;23.308;2024-03-23T07:08:04;120715.88;;;-142.62;51.57
6427;BME280;3246;42.664;23.308;2024-03-23T07:10:31;120715.88;;;-142.62;50.71
6427;BME280;3246;42.664;23.308;2024-03-23T07:12:57;120715.88;;;-142.62;50.47
6427;BME280;3246;42.664;23.308;2024-03-23T07:15:25;120715.88;;;-142.62;50.02
6427;BME280;3246;42.664;23.308;2024-03-23T07:17:51;120715.88;;;-142.62;50.40
6427;BME280;3246;42.664;23.308;2024-03-23T07:20:17;120715.88;;;-142.62;50.36
6427;BME280;3246;42.664;23.308;2024-03-23T07:22:45;120715.88;;;-142.62;49.67
6427;BME280;3246;42.664;23.308;2024-03-23T07:25:12;120715.88;;;-142.62;49.09
6427;BME280;3246;42.664;23.308;2024-03-23T07:27:38;120715.88;;;-142.62;49.00
6427;BME280;3246;42.664;23.308;2024-03-23T07:30:06;120715.88;;;-142.62;48.38
6427;BME280;3246;42.664;23.308;2024-03-23T07:32:34;120715.88;;;-142.62;48.28
6427;BME280;3246;42.664;23.308;2024-03-23T07:35:01;120715.88;;;-142.62;48.80
6427;BME280;3246;42.664;23.308;2024-03-23T07:37:27;120715.88;;;-142.62;48.77
6427;BME280;3246;42.664;23.308;2024-03-23T07:39:54;120715.88;;;-142.62;47.93
6427;BME280;3246;42.664;23.308;2024-03-23T07:42:19;120715.88;;;-142.62;47.32
6427;BME280;3246;42.664;23.308;2024-03-23T07:44:46;120715.88;;;-142.62;47.14
6427;BME280;3246;42.664;23.308;2024-03-23T07:47:12;120715.88;;;-142.62;47.40
6427;BME280;3246;42.664;23.308;2024-03-23T07:49:40;120715.88;;;-142.62;46.67
6427;BME280;3246;42.664;23.308;2024-03-23T07:52:06;120715.88;;;-142.62;46.28
6427;BME280;3246;42.664;23.308;2024-03-23T07:54:34;120715.88;;;-142.62;46.20
6427;BME280;3246;42.664;23.308;2024-03-23T07:57:00;120715.88;;;-142.62;46.15
6427;BME280;3246;42.664;23.308;2024-03-23T07:59:27;120715.88;;;-142.62;45.76
6427;BME280;3246;42.664;23.308;2024-03-23T08:01:53;120715.88;;;-142.62;45.51
6427;BME280;3246;42.664;23.308;2024-03-23T08:04:20;120715.88;;;-142.62;46.60
6427;BME280;3246;42.664;23.308;2024-03-23T08:06:47;120715.88;;;-142.62;46.25
6427;BME280;3246;42.664;23.308;2024-03-23T08:09:14;120715.88;;;-142.62;46.47
6427;BME280;3246;42.664;23.308;2024-03-23T08:11:40;120715.88;;;-142.62;45.90
6427;BME280;3246;42.664;23.308;2024-03-23T08:14:09;120715.88;;;-142.62;46.07
6427;BME280;3246;42.664;23.308;2024-03-23T08:16:35;120715.88;;;-142.62;46.52
6427;BME280;3246;42.664;23.308;2024-03-23T08:19:02;120715.88;;;-142.62;45.94
6427;BME280;3246;42.664;23.308;2024-03-23T08:21:29;120715.88;;;-142.62;45.91
6427;BME280;3246;42.664;23.308;2024-03-23T08:23:57;120715.88;;;-142.62;44.90
6427;BME280;3246;42.664;23.308;2024-03-23T08:26:23;120715.88;;;-142.62;44.82
6427;BME280;3246;42.664;23.308;2024-03-23T08:28:50;120715.88;;;-142.62;44.77
6427;BME280;3246;42.664;23.308;2024-03-23T08:31:16;120715.88;;;-142.62;44.46
6427;BME280;3246;42.664;23.308;2024-03-23T08:33:42;120715.88;;;-142.62;44.33
6427;BME280;3246;42.664;23.308;2024-03-23T08:36:10;120715.88;;;-142.62;43.58
6427;BME280;3246;42.664;23.308;2024-03-23T08:38:39;120715.88;;;-142.62;43.27
6427;BME280;3246;42.664;23.308;2024-03-23T08:41:07;120715.88;;;-142.62;43.22
6427;BME280;3246;42.664;23.308;2024-03-23T08:43:36;120715.88;;;-142.62;42.91
6427;BME280;3246;42.664;23.308;2024-03-23T08:46:05;120715.88;;;-142.62;42.55
6427;BME280;3246;42.664;23.308;2024-03-23T08:48:32;120715.88;;;-142.62;43.16
6427;BME280;3246;42.664;23.308;2024-03-23T08:51:00;120715.88;;;-142.62;42.75
6427;BME280;3246;42.664;23.308;2024-03-23T08:53:28;120715.88;;;-142.62;42.48
6427;BME280;3246;42.664;23.308;2024-03-23T08:55:54;120715.88;;;-142.62;41.93
6427;BME280;3246;42.664;23.308;2024-03-23T08:58:23;120715.88;;;-142.62;41.85
6427;BME280;3246;42.664;23.308;2024-03-23T09:00:50;120715.88;;;-142.62;42.02
6427;BME280;3246;42.664;23.308;2024-03-23T09:03:16;120715.88;;;-142.62;42.21
6427;BME280;3246;42.664;23.308;2024-03-23T09:05:42;120715.88;;;-142.62;42.08
6427;BME280;3246;42.664;23.308;2024-03-23T09:08:09;120715.88;;;-142.62;41.77
6427;BME280;3246;42.664;23.308;2024-03-23T09:10:38;120715.88;;;-142.62;41.89
6427;BME280;3246;42.664;23.308;2024-03-23T09:13:05;120715.88;;;-142.62;41.33
6427;BME280;3246;42.664;23.308;2024-03-23T09:15:34;120715.88;;;-142.62;41.77
6427;BME280;3246;42.664;23.308;2024-03-23T09:18:01;120715.88;;;-142.62;41.04
6427;BME280;3246;42.664;23.308;2024-03-23T09:20:27;120715.88;;;-142.62;41.20
6427;BME280;3246;42.664;23.308;2024-03-23T09:22:54;120715.88;;;-142.62;40.40
6427;BME280;3246;42.664;23.308;2024-03-23T09:25:20;120715.88;;;-142.62;40.80
6427;BME280;3246;42.664;23.308;2024-03-23T09:27:47;120715.88;;;-142.62;40.79
6427;BME280;3246;42.664;23.308;2024-03-23T09:30:14;120715.88;;;-142.62;40.34
6427;BME280;3246;42.664;23.308;2024-03-23T09:32:43;120715.88;;;-142.62;39.74
6427;BME280;3246;42.664;23.308;2024-03-23T09:35:09;120715.88;;;-142.62;40.17
6427;BME280;3246;42.664;23.308;2024-03-23T09:37:37;120715.88;;;-142.62;39.42
6427;BME280;3246;42.664;23.308;2024-03-23T09:40:03;120715.88;;;-142.62;38.94
6427;BME280;3246;42.664;23.308;2024-03-23T09:42:30;120715.88;;;-142.62;39.30
6427;BME280;3246;42.664;23.308;2024-03-23T09:44:57;120715.88;;;-142.62;39.12
6427;BME280;3246;42.664;23.308;2024-03-23T09:47:24;120715.88;;;-142.62;38.47
6427;BME280;3246;42.664;23.308;2024-03-23T09:49:52;120715.88;;;-142.62;38.08
6427;BME280;3246;42.664;23.308;2024-03-23T09:52:19;120715.88;;;-142.62;38.00
6427;BME280;3246;42.664;23.308;2024-03-23T09:54:44;120715.88;;;-142.62;37.94
6427;BME280;3246;42.664;23.308;2024-03-23T09:57:11;120715.88;;;-142.62;37.97
6427;BME280;3246;42.664;23.308;2024-03-23T09:59:37;120715.88;;;-142.62;37.26
6427;BME280;3246;42.664;23.308;2024-03-23T10:02:05;120715.88;;;-142.62;36.98
6427;BME280;3246;42.664;23.308;2024-03-23T10:04:36;120715.88;;;-142.62;37.41
6427;BME280;3246;42.664;23.308;2024-03-23T10:07:12;120715.88;;;-142.62;37.61
6427;BME280;3246;42.664;23.308;2024-03-23T10:09:38;120715.88;;;-142.62;36.67
6427;BME280;3246;42.664;23.308;2024-03-23T10:12:09;120715.88;;;-142.62;36.96
6427;BME280;3246;42.664;23.308;2024-03-23T10:14:35;120715.88;;;-142.62;37.36
6427;BME280;3246;42.664;23.308;2024-03-23T10:17:13;120715.88;;;-142.62;36.37
6427;BME280;3246;42.664;23.308;2024-03-23T10:19:39;120715.88;;;-142.62;36.37
6427;BME280;3246;42.664;23.308;2024-03-23T10:22:08;120715.88;;;-142.62;36.08
6427;BME280;3246;42.664;23.308;2024-03-23T10:24:35;120715.88;;;-142.62;35.29
6427;BME280;3246;42.664;23.308;2024-03-23T10:27:02;120715.88;;;-142.62;35.22
6427;BME280;3246;42.664;23.308;2024-03-23T10:29:28;120715.88;;;-142.62;35.24
6427;BME280;3246;42.664;23.308;2024-03-23T10:32:07;120715.88;;;-142.62;34.66
6427;BME280;3246;42.664;23.308;2024-03-23T10:34:33;120715.88;;;-142.62;34.66
6427;BME280;3246;42.664;23.308;2024-03-23T10:37:02;120715.88;;;-142.62;34.86
6427;BME280;3246;42.664;23.308;2024-03-23T10:39:30;120715.88;;;-142.62;35.09
6427;BME280;3246;42.664;23.308;2024-03-23T10:42:00;120715.88;;;-142.62;34.87
6427;BME280;3246;42.664;23.308;2024-03-23T10:44:28;120715.88;;;-142.62;35.02
6427;BME280;3246;42.664;23.308;2024-03-23T10:46:57;120715.88;;;-142.62;34.31
6427;BME280;3246;42.664;23.308;2024-03-23T10:49:26;120715.88;;;-142.62;33.87
6427;BME280;3246;42.664;23.308;2024-03-23T10:51:56;120715.88;;;-142.62;34.13
6427;BME280;3246;42.664;23.308;2024-03-23T10:54:24;120715.88;;;-142.62;34.07
6427;BME280;3246;42.664;23.308;2024-03-23T10:56:58;120715.88;;;-142.62;34.12
6427;BME280;3246;42.664;23.308;2024-03-23T10:59:27;120715.88;;;-142.62;34.37
6427;BME280;3246;42.664;23.308;2024-03-23T11:01:54;120715.88;;;-142.62;34.18
6427;BME280;3246;42.664;23.308;2024-03-23T11:04:29;120715.88;;;-142.62;34.32
6427;BME280;3246;42.664;23.308;2024-03-23T11:06:57;120715.88;;;-142.62;34.07
6427;BME280;3246;42.664;23.308;2024-03-23T11:09:38;120715.88;;;-142.62;34.13
6427;BME280;3246;42.664;23.308;2024-03-23T11:12:25;120715.88;;;-142.62;33.87
6427;BME280;3246;42.664;23.308;2024-03-23T11:14:56;120715.88;;;-142.62;32.96
6427;BME280;3246;42.664;23.308;2024-03-23T11:17:24;120715.88;;;-142.62;33.07
6427;BME280;3246;42.664;23.308;2024-03-23T11:19:54;120715.88;;;-142.62;33.52
6427;BME280;3246;42.664;23.308;2024-03-23T11:22:44;120715.88;;;-142.62;33.21
6427;BME280;3246;42.664;23.308;2024-03-23T11:25:16;120715.88;;;-142.62;32.85
6427;BME280;3246;42.664;23.308;2024-03-23T11:27:43;120715.88;;;-142.62;32.79
6427;BME280;3246;42.664;23.308;2024-03-23T11:30:12;120715.88;;;-142.62;32.74
6427;BME280;3246;42.664;23.308;2024-03-23T11:32:39;120715.88;;;-142.62;32.30
6427;BME280;3246;42.664;23.308;2024-03-23T11:35:06;120715.88;;;-142.62;32.53
6427;BME280;3246;42.664;23.308;2024-03-23T11:37:36;120715.88;;;-142.62;32.06
6427;BME280;3246;42.664;23.308;2024-03-23T11:40:16;120715.88;;;-142.62;31.45
6427;BME280;3246;42.664;23.308;2024-03-23T11:42:43;120715.88;;;-142.62;31.01
6427;BME280;3246;42.664;23.308;2024-03-23T11:45:12;120715.88;;;-142.62;31.67
6427;BME280;3246;42.664;23.308;2024-03-23T11:47:39;120715.88;;;-142.62;31.50
6427;BME280;3246;42.664;23.308;2024-03-23T11:50:05;120715.88;;;-142.62;31.48
6427;BME280;3246;42.664;23.308;2024-03-23T11:52:32;120715.88;;;-142.62;30.81
6427;BME280;3246;42.664;23.308;2024-03-23T11:55:03;120715.88;;;-142.62;30.73
6427;BME280;3246;42.664;23.308;2024-03-23T11:57:30;120715.88;;;-142.62;30.52
6427;BME280;3246;42.664;23.308;2024-03-23T11:59:56;120715.88;;;-142.62;30.71
6427;BME280;3246;42.664;23.308;2024-03-23T12:02:24;120715.88;;;-142.62;30.54
6427;BME280;3246;42.664;23.308;2024-03-23T12:04:50;120715.88;;;-142.62;30.54
6427;BME280;3246;42.664;23.308;2024-03-23T12:07:18;120715.88;;;-142.62;30.33
6427;BME280;3246;42.664;23.308;2024-03-23T12:09:45;120715.88;;;-142.62;30.16
6427;BME280;3246;42.664;23.308;2024-03-23T12:12:14;120715.88;;;-142.62;30.27
6427;BME280;3246;42.664;23.308;2024-03-23T12:14:41;120715.88;;;-142.62;29.49
6427;BME280;3246;42.664;23.308;2024-03-23T12:17:11;120715.88;;;-142.62;28.98
6427;BME280;3246;42.664;23.308;2024-03-23T12:19:39;120715.88;;;-142.62;28.97
6427;BME280;3246;42.664;23.308;2024-03-23T12:22:07;120715.88;;;-142.62;27.11
6427;BME280;3246;42.664;23.308;2024-03-23T12:24:34;120715.88;;;-142.62;26.62
6427;BME280;3246;42.664;23.308;2024-03-23T12:27:02;120715.88;;;-142.62;26.17
6427;BME280;3246;42.664;23.308;2024-03-23T12:29:29;120715.88;;;-142.62;25.64
6427;BME280;3246;42.664;23.308;2024-03-23T12:31:58;120715.88;;;-142.62;25.52
6427;BME280;3246;42.664;23.308;2024-03-23T12:34:24;120715.88;;;-142.62;25.44
6427;BME280;3246;42.664;23.308;2024-03-23T12:36:54;120715.88;;;-142.62;25.16
6427;BME280;3246;42.664;23.308;2024-03-23T12:39:20;120715.88;;;-142.62;25.13
6427;BME280;3246;42.664;23.308;2024-03-23T12:41:47;120715.88;;;-142.62;25.03
6427;BME280;3246;42.664;23.308;2024-03-23T12:44:13;120715.88;;;-142.62;24.99
6427;BME280;3246;42.664;23.308;2024-03-23T12:46:40;120715.88;;;-142.62;25.11
6427;BME280;3246;42.664;23.308;2024-03-23T12:49:06;120715.88;;;-142.62;25.60
6427;BME280;3246;42.664;23.308;2024-03-23T12:51:33;120715.88;;;-142.62;25.23
6427;BME280;3246;42.664;23.308;2024-03-23T12:54:00;120715.88;;;-142.62;25.08
6427;BME280;3246;42.664;23.308;2024-03-23T12:56:27;120715.88;;;-142.62;24.78
6427;BME280;3246;42.664;23.308;2024-03-23T12:58:53;120715.88;;;-142.62;24.60
6427;BME280;3246;42.664;23.308;2024-03-23T13:01:22;120715.88;;;-142.62;24.54
6427;BME280;3246;42.664;23.308;2024-03-23T13:03:48;120715.88;;;-142.62;24.79
6427;BME280;3246;42.664;23.308;2024-03-23T13:06:15;120715.88;;;-142.62;25.13
6427;BME280;3246;42.664;23.308;2024-03-23T13:08:42;120715.88;;;-142.62;25.31
6427;BME280;3246;42.664;23.308;2024-03-23T13:11:12;120715.88;;;-142.62;24.89
6427;BME280;3246;42.664;23.308;2024-03-23T13:13:38;120715.88;;;-142.62;25.15
6427;BME280;3246;42.664;23.308;2024-03-23T13:16:05;120715.88;;;-142.62;24.70
6427;BME280;3246;42.664;23.308;2024-03-23T13:18:31;120715.88;;;-142.62;24.88
6427;BME280;3246;42.664;23.308;2024-03-23T13:20:58;120715.88;;;-142.62;25.03
6427;BME280;3246;42.664;23.308;2024-03-23T13:23:25;120715.88;;;-142.62;24.69
6427;BME280;3246;42.664;23.308;2024-03-23T13:25:51;120715.88;;;-142.62;24.38
6427;BME280;3246;42.664;23.308;2024-03-23T13:28:19;120715.88;;;-142.62;24.66
6427;BME280;3246;42.664;23.308;2024-03-23T13:30:50;120715.88;;;-142.62;24.28
6427;BME280;3246;42.664;23.308;2024-03-23T13:33:16;120715.88;;;-142.62;24.62
6427;BME280;3246;42.664;23.308;2024-03-23T13:35:49;120715.88;;;-142.62;24.21